Shawmut, Alabama
Current Conditions -  °F | °C
As of 3:35 PM on Friday 19 Dec 2014 (Local Time) from KLGC Reporting Station
Clear Clear  
Wind Chill: 56°   Ceiling: Unl
Heat Index: 56°   Visibility: 10mi
Dew Point: 41°   Wind: 0mph
Humidity: 58%   Direction: NA
Pressure: 30.09"   Gusts: NA
Location:  32.7858°N, 85.1946°W
Report Text: KLGC 192135Z AUTO 00000KT 10SM CLR 13/05 A3009 RMK AO2 T01320050
Loading
Personal Weather Stations






























Interactive Weather Map New forecast layout! Learn more

10-Day Weather Forecast

Advertisements
Track Severe Weather on mobile